Schroeder, Minnesota
Current Conditions -  °F | °C
As of 7:14 PM on Sunday 23 Nov 2014 (Local Time) from KCKC Reporting Station
Haze Haze  
Wind Chill: 32°   Ceiling: 700
Heat Index: 36°   Visibility: 3mi
Dew Point: 34°   Wind: 5mph
Humidity: 93%   Direction: 320°NW
Pressure: 29.33"   Gusts: NA
Location:  47.54°N, 90.89°W
Report Text: KCKC 240114Z AUTO 32004KT 3SM BR OVC007 02/01 A2933 RMK AO2
Loading
Personal Weather Stations






























Interactive Weather Map New forecast layout! Learn more

10-Day Weather Forecast

Advertisements
Track Severe Weather on mobile